createdAt,value
2018-03-04T00:00:39.756Z,-6.6
2018-03-04T00:01:42.158Z,-6.6
2018-03-04T00:02:44.575Z,-6.6
2018-03-04T00:03:47.283Z,-6.6
2018-03-04T00:04:49.699Z,-6.6
2018-03-04T00:05:52.118Z,-6.6
2018-03-04T00:06:54.534Z,-6.6
2018-03-04T00:07:56.950Z,-6.7
2018-03-04T00:08:59.355Z,-6.7
2018-03-04T00:10:01.761Z,-6.7
2018-03-04T00:11:04.486Z,-6.7
2018-03-04T00:12:07.186Z,-6.7
2018-03-04T00:13:09.606Z,-6.7
2018-03-04T00:14:12.292Z,-6.7
2018-03-04T00:15:14.706Z,-6.7
2018-03-04T00:16:17.127Z,-6.7
2018-03-04T00:17:19.541Z,-6.7
2018-03-04T00:18:21.949Z,-6.7
2018-03-04T00:19:24.359Z,-6.7
2018-03-04T00:20:26.771Z,-6.7
2018-03-04T00:21:29.188Z,-6.7
2018-03-04T00:22:31.891Z,-6.8
2018-03-04T00:23:34.294Z,-6.8
2018-03-04T00:24:36.706Z,-6.8
2018-03-04T00:25:39.136Z,-6.8
2018-03-04T00:26:41.537Z,-6.8
2018-03-04T00:27:44.288Z,-6.8
2018-03-04T00:28:46.661Z,-6.8
2018-03-04T00:29:49.072Z,-6.8
2018-03-04T00:30:51.784Z,-6.8
2018-03-04T00:31:54.492Z,-6.8
2018-03-04T00:32:56.894Z,-6.8
2018-03-04T00:33:59.312Z,-6.8
2018-03-04T00:35:02.020Z,-6.8
2018-03-04T00:36:04.422Z,-6.9
2018-03-04T00:37:06.834Z,-6.9
2018-03-04T00:38:09.245Z,-6.9
2018-03-04T00:39:11.656Z,-6.9
2018-03-04T00:40:14.062Z,-6.9
2018-03-04T00:41:16.483Z,-6.9
2018-03-04T00:42:18.875Z,-6.9
2018-03-04T00:43:21.588Z,-6.9
2018-03-04T00:44:23.997Z,-7
2018-03-04T00:45:26.412Z,-7
2018-03-04T00:46:28.818Z,-7
2018-03-04T00:47:31.229Z,-7
2018-03-04T00:48:33.634Z,-7
2018-03-04T00:49:36.056Z,-7
2018-03-04T00:50:38.464Z,-7
2018-03-04T00:51:40.882Z,-7
2018-03-04T00:52:43.286Z,-7.1
2018-03-04T00:53:45.986Z,-7.1
2018-03-04T00:54:48.387Z,-7.1
2018-03-04T00:55:50.808Z,-7.1
2018-03-04T00:56:53.211Z,-7.1
2018-03-04T00:57:55.909Z,-7.2
2018-03-04T00:58:58.319Z,-7.2
2018-03-04T01:00:01.030Z,-7.2
2018-03-04T01:01:04.034Z,-7.2
2018-03-04T01:02:06.450Z,-7.2
2018-03-04T01:03:08.858Z,-7.2
2018-03-04T01:04:11.271Z,-7.2
2018-03-04T01:05:13.672Z,-7.2
2018-03-04T01:06:16.096Z,-7.2
2018-03-04T01:07:18.506Z,-7.2
2018-03-04T01:08:20.905Z,-7.2
2018-03-04T01:09:23.321Z,-7.2
2018-03-04T01:10:25.736Z,-7.2
2018-03-04T01:11:28.152Z,-7.2
2018-03-04T01:12:30.574Z,-7.2
2018-03-04T01:13:32.978Z,-7.2
2018-03-04T01:14:35.384Z,-7.2
2018-03-04T01:15:37.810Z,-7.2
2018-03-04T01:16:40.217Z,-7.3
2018-03-04T01:17:42.623Z,-7.3
2018-03-04T01:18:45.046Z,-7.3
2018-03-04T01:19:47.739Z,-7.3
2018-03-04T01:20:50.157Z,-7.3
2018-03-04T01:21:52.564Z,-7.2
2018-03-04T01:22:55.246Z,-7.3
2018-03-04T01:23:57.668Z,-7.3
2018-03-04T01:25:00.378Z,-7.3
2018-03-04T01:26:02.792Z,-7.3
2018-03-04T01:27:05.204Z,-7.3
2018-03-04T01:28:07.907Z,-7.4
2018-03-04T01:29:10.316Z,-7.4
2018-03-04T01:30:12.739Z,-7.4
2018-03-04T01:31:15.445Z,-7.4
2018-03-04T01:32:18.420Z,-7.4
2018-03-04T01:33:20.826Z,-7.4
2018-03-04T01:34:23.235Z,-7.4
2018-03-04T01:35:25.651Z,-7.4
2018-03-04T01:36:28.354Z,-7.4
2018-03-04T01:37:30.769Z,-7.4
2018-03-04T01:38:33.471Z,-7.5
2018-03-04T01:39:35.889Z,-7.4
2018-03-04T01:40:38.902Z,-7.5
2018-03-04T01:41:41.620Z,-7.5
2018-03-04T01:42:44.032Z,-7.4
2018-03-04T01:43:46.443Z,-7.5
2018-03-04T01:44:48.855Z,-7.5
2018-03-04T01:45:51.254Z,-7.5
2018-03-04T01:46:53.673Z,-7.6
2018-03-04T01:47:56.129Z,-7.6
2018-03-04T01:48:58.493Z,-7.6
2018-03-04T01:50:00.907Z,-7.6
2018-03-04T01:51:03.318Z,-7.6
2018-03-04T01:52:06.011Z,-7.6
2018-03-04T01:53:08.415Z,-7.6
2018-03-04T01:54:10.822Z,-7.6
2018-03-04T01:55:13.530Z,-7.6
2018-03-04T01:56:15.941Z,-7.6
2018-03-04T01:57:18.355Z,-7.6
2018-03-04T01:58:20.775Z,-7.6
2018-03-04T01:59:23.188Z,-7.5
2018-03-04T02:00:25.901Z,-7.5
2018-03-04T02:01:28.312Z,-7.5
2018-03-04T02:02:30.722Z,-7.5
2018-03-04T02:03:33.279Z,-7.5
2018-03-04T02:04:35.699Z,-7.4
2018-03-04T02:05:38.118Z,-7.4
2018-03-04T02:06:40.525Z,-7.5
2018-03-04T02:07:42.936Z,-7.5
2018-03-04T02:08:45.345Z,-7.5
2018-03-04T02:09:47.754Z,-7.5
2018-03-04T02:10:50.164Z,-7.5
2018-03-04T02:11:52.574Z,-7.4
2018-03-04T02:12:54.969Z,-7.5
2018-03-04T02:13:57.393Z,-7.5
2018-03-04T02:15:00.086Z,-7.5
2018-03-04T02:16:02.782Z,-7.5
2018-03-04T02:17:05.193Z,-7.5
2018-03-04T02:18:07.592Z,-7.4
2018-03-04T02:19:10.003Z,-7.4
2018-03-04T02:20:13.030Z,-7.5
2018-03-04T02:21:15.432Z,-7.5
2018-03-04T02:22:18.151Z,-7.5
2018-03-04T02:23:20.561Z,-7.5
2018-03-04T02:24:23.251Z,-7.5
2018-03-04T02:25:25.670Z,-7.6
2018-03-04T02:26:28.373Z,-7.6
2018-03-04T02:27:30.773Z,-7.6
2018-03-04T02:28:33.183Z,-7.6
2018-03-04T02:29:35.878Z,-7.6
2018-03-04T02:30:38.287Z,-7.6
2018-03-04T02:31:40.698Z,-7.6
2018-03-04T02:32:43.399Z,-7.6
2018-03-04T02:33:46.398Z,-7.6
2018-03-04T02:34:48.804Z,-7.6
2018-03-04T02:35:51.218Z,-7.6
2018-03-04T02:36:53.613Z,-7.6
2018-03-04T02:37:56.020Z,-7.6
2018-03-04T02:38:58.740Z,-7.6
2018-03-04T02:40:01.139Z,-7.6
2018-03-04T02:41:03.552Z,-7.6
2018-03-04T02:42:05.965Z,-7.7
2018-03-04T02:43:08.383Z,-7.7
2018-03-04T02:44:10.799Z,-7.7
2018-03-04T02:45:13.215Z,-7.7
2018-03-04T02:46:15.901Z,-7.7
2018-03-04T02:47:18.318Z,-7.7
2018-03-04T02:48:21.007Z,-7.7
2018-03-04T02:49:23.711Z,-7.7
2018-03-04T02:50:26.698Z,-7.7
2018-03-04T02:51:29.398Z,-7.7
2018-03-04T02:52:31.814Z,-7.8
2018-03-04T02:53:34.520Z,-7.8
2018-03-04T02:54:36.926Z,-7.8
2018-03-04T02:55:39.336Z,-7.8
2018-03-04T02:56:41.747Z,-7.8
2018-03-04T02:57:44.174Z,-7.8
2018-03-04T02:58:47.188Z,-7.8
2018-03-04T02:59:49.939Z,-7.8
2018-03-04T03:00:52.641Z,-7.8
2018-03-04T03:01:55.058Z,-7.8
2018-03-04T03:02:57.768Z,-7.8
2018-03-04T03:04:00.168Z,-7.8
2018-03-04T03:05:02.889Z,-7.9
2018-03-04T03:06:05.293Z,-7.9
2018-03-04T03:07:07.707Z,-7.9
2018-03-04T03:08:10.432Z,-7.8
2018-03-04T03:09:13.107Z,-7.8
2018-03-04T03:10:15.514Z,-7.9
2018-03-04T03:11:17.934Z,-7.9
2018-03-04T03:12:20.628Z,-7.9
2018-03-04T03:13:23.040Z,-7.9
2018-03-04T03:14:25.735Z,-7.9
2018-03-04T03:15:28.434Z,-7.9
2018-03-04T03:16:31.121Z,-7.9
2018-03-04T03:17:33.545Z,-7.9
2018-03-04T03:18:35.962Z,-7.9
2018-03-04T03:19:38.384Z,-7.9
2018-03-04T03:20:40.791Z,-7.9
2018-03-04T03:21:43.491Z,-7.9
2018-03-04T03:22:45.896Z,-7.9
2018-03-04T03:23:48.314Z,-8
2018-03-04T03:24:50.718Z,-7.9
2018-03-04T03:25:53.122Z,-8
2018-03-04T03:26:55.537Z,-7.9
2018-03-04T03:27:57.947Z,-7.9
2018-03-04T03:29:00.361Z,-7.9
2018-03-04T03:30:02.778Z,-7.9
2018-03-04T03:31:05.181Z,-8
2018-03-04T03:32:07.596Z,-8
2018-03-04T03:33:10.000Z,-8
2018-03-04T03:34:12.697Z,-7.9
2018-03-04T03:35:15.106Z,-7.9
2018-03-04T03:36:17.506Z,-7.9
2018-03-04T03:37:19.916Z,-7.9
2018-03-04T03:38:22.318Z,-8
2018-03-04T03:39:24.731Z,-8
2018-03-04T03:40:27.460Z,-7.9
2018-03-04T03:41:29.875Z,-8
2018-03-04T03:42:32.578Z,-7.9
2018-03-04T03:43:34.983Z,-8
2018-03-04T03:44:37.990Z,-8
2018-03-04T03:45:40.395Z,-8
2018-03-04T03:46:42.817Z,-8
2018-03-04T03:47:45.221Z,-8
2018-03-04T03:48:47.635Z,-8
2018-03-04T03:49:50.337Z,-8
2018-03-04T03:50:53.040Z,-8
2018-03-04T03:51:55.743Z,-8
2018-03-04T03:52:58.447Z,-8
2018-03-04T03:54:00.852Z,-8
2018-03-04T03:55:03.558Z,-7.9
2018-03-04T03:56:05.967Z,-8
2018-03-04T03:57:08.375Z,-8
2018-03-04T03:58:11.095Z,-8
2018-03-04T03:59:13.520Z,-8
2018-03-04T04:00:15.911Z,-8
2018-03-04T04:01:18.325Z,-8
2018-03-04T04:02:20.758Z,-8
2018-03-04T04:03:23.448Z,-8
2018-03-04T04:04:25.850Z,-8
2018-03-04T04:05:28.843Z,-8
2018-03-04T04:06:31.564Z,-8
2018-03-04T04:07:33.973Z,-8
2018-03-04T04:08:36.396Z,-8
2018-03-04T04:09:38.794Z,-8
2018-03-04T04:10:41.201Z,-8.1
2018-03-04T04:11:43.620Z,-8
2018-03-04T04:12:46.027Z,-8.1
2018-03-04T04:13:48.428Z,-8.1
2018-03-04T04:14:50.836Z,-8
2018-03-04T04:15:53.242Z,-8
2018-03-04T04:16:55.655Z,-8.1
2018-03-04T04:17:58.061Z,-8
2018-03-04T04:19:00.467Z,-8
2018-03-04T04:20:03.475Z,-7.9
2018-03-04T04:21:06.177Z,-8
2018-03-04T04:22:08.581Z,-8
2018-03-04T04:23:10.994Z,-8
2018-03-04T04:24:13.389Z,-8
2018-03-04T04:25:15.808Z,-8
2018-03-04T04:26:18.226Z,-8
2018-03-04T04:27:20.922Z,-8
2018-03-04T04:28:23.331Z,-8
2018-03-04T04:29:25.771Z,-8
2018-03-04T04:30:28.142Z,-8
2018-03-04T04:31:30.559Z,-8
2018-03-04T04:32:33.264Z,-8
2018-03-04T04:33:35.969Z,-8
2018-03-04T04:34:38.378Z,-8
2018-03-04T04:35:40.786Z,-8
2018-03-04T04:36:43.197Z,-7.9
2018-03-04T04:37:45.607Z,-7.9
2018-03-04T04:38:48.009Z,-8
2018-03-04T04:39:50.415Z,-8
2018-03-04T04:40:53.115Z,-8
2018-03-04T04:41:55.818Z,-8
2018-03-04T04:42:58.227Z,-8
2018-03-04T04:44:00.638Z,-8
2018-03-04T04:45:03.051Z,-8
2018-03-04T04:46:05.463Z,-8
2018-03-04T04:47:07.871Z,-8
2018-03-04T04:48:10.282Z,-8
2018-03-04T04:49:12.693Z,-8
2018-03-04T04:50:15.105Z,-8
2018-03-04T04:51:17.510Z,-8
2018-03-04T04:52:19.909Z,-8
2018-03-04T04:53:22.324Z,-8
2018-03-04T04:54:24.728Z,-8
2018-03-04T04:55:27.131Z,-8
2018-03-04T04:56:29.540Z,-7.9
2018-03-04T04:57:31.950Z,-7.9
2018-03-04T04:58:34.361Z,-7.9
2018-03-04T04:59:36.786Z,-7.9
2018-03-04T05:00:39.186Z,-7.9
2018-03-04T05:01:41.892Z,-7.9
2018-03-04T05:02:44.301Z,-7.9
2018-03-04T05:03:47.303Z,-7.9
2018-03-04T05:04:49.702Z,-7.9
2018-03-04T05:05:52.400Z,-7.9
2018-03-04T05:06:55.119Z,-7.9
2018-03-04T05:07:57.522Z,-7.9
2018-03-04T05:08:59.931Z,-7.9
2018-03-04T05:10:02.638Z,-7.9
2018-03-04T05:11:05.043Z,-7.9
2018-03-04T05:12:07.461Z,-7.9
2018-03-04T05:13:09.877Z,-7.9
2018-03-04T05:14:12.273Z,-7.9
2018-03-04T05:15:14.981Z,-7.9
2018-03-04T05:16:17.396Z,-7.9
2018-03-04T05:17:19.796Z,-7.9
2018-03-04T05:18:22.210Z,-7.8
2018-03-04T05:19:24.618Z,-7.9
2018-03-04T05:20:27.026Z,-7.9
2018-03-04T05:21:29.720Z,-7.8
2018-03-04T05:22:32.125Z,-7.9
2018-03-04T05:23:34.538Z,-7.8
2018-03-04T05:24:36.951Z,-7.8
2018-03-04T05:25:39.351Z,-7.8
2018-03-04T05:26:41.761Z,-7.8
2018-03-04T05:27:44.178Z,-7.8
2018-03-04T05:28:46.877Z,-7.8
2018-03-04T05:29:49.277Z,-7.7
2018-03-04T05:30:51.700Z,-7.7
2018-03-04T05:31:54.103Z,-7.7
2018-03-04T05:32:56.510Z,-7.7
2018-03-04T05:33:58.919Z,-7.7
2018-03-04T05:35:01.656Z,-7.6
2018-03-04T05:36:04.072Z,-7.6
2018-03-04T05:37:06.446Z,-7.6
2018-03-04T05:38:08.849Z,-7.6
2018-03-04T05:39:11.268Z,-7.6
2018-03-04T05:40:13.977Z,-7.6
2018-03-04T05:41:16.668Z,-7.6
2018-03-04T05:42:19.077Z,-7.5
2018-03-04T05:43:21.477Z,-7.5
2018-03-04T05:44:23.891Z,-7.5
2018-03-04T05:45:26.305Z,-7.5
2018-03-04T05:46:28.715Z,-7.5
2018-03-04T05:47:31.404Z,-7.4
2018-03-04T05:48:34.124Z,-7.4
2018-03-04T05:49:36.512Z,-7.4
2018-03-04T05:50:38.914Z,-7.4
2018-03-04T05:51:41.613Z,-7.4
2018-03-04T05:52:44.030Z,-7.4
2018-03-04T05:53:46.432Z,-7.3
2018-03-04T05:54:49.134Z,-7.3
2018-03-04T05:55:51.551Z,-7.3
2018-03-04T05:56:53.949Z,-7.3
2018-03-04T05:57:56.367Z,-7.3
2018-03-04T05:58:58.776Z,-7.2
2018-03-04T06:00:01.471Z,-7.2
2018-03-04T06:01:03.901Z,-7.2
2018-03-04T06:02:06.292Z,-7.2
2018-03-04T06:03:08.697Z,-7.2
2018-03-04T06:04:11.389Z,-7.2
2018-03-04T06:05:13.796Z,-7.1
2018-03-04T06:06:16.505Z,-7.1
2018-03-04T06:07:18.917Z,-7.1
2018-03-04T06:08:21.623Z,-7.1
2018-03-04T06:09:24.325Z,-7
2018-03-04T06:10:26.740Z,-7
2018-03-04T06:11:29.142Z,-7
2018-03-04T06:12:31.552Z,-7
2018-03-04T06:13:33.951Z,-7
2018-03-04T06:14:36.375Z,-6.9
2018-03-04T06:15:38.769Z,-6.9
2018-03-04T06:16:41.470Z,-6.9
2018-03-04T06:17:44.167Z,-6.9
2018-03-04T06:18:46.571Z,-6.9
2018-03-04T06:19:49.283Z,-6.8
2018-03-04T06:20:51.693Z,-6.8
2018-03-04T06:21:54.095Z,-6.8
2018-03-04T06:22:56.523Z,-6.7
2018-03-04T06:23:58.932Z,-6.7
2018-03-04T06:25:01.336Z,-6.7
2018-03-04T06:26:03.748Z,-6.7
2018-03-04T06:27:06.159Z,-6.7
2018-03-04T06:28:08.861Z,-6.7
2018-03-04T06:29:11.263Z,-6.7
2018-03-04T06:30:13.960Z,-6.7
2018-03-04T06:31:16.363Z,-6.6
2018-03-04T06:32:19.082Z,-6.6
2018-03-04T06:33:21.499Z,-6.6
2018-03-04T06:34:23.899Z,-6.6
2018-03-04T06:35:26.313Z,-6.6
2018-03-04T06:36:28.722Z,-6.6
2018-03-04T06:37:31.706Z,-6.6
2018-03-04T06:38:34.118Z,-6.6
2018-03-04T06:39:36.517Z,-6.6
2018-03-04T06:40:38.927Z,-6.6
2018-03-04T06:41:41.337Z,-6.6
2018-03-04T06:42:43.753Z,-6.6
2018-03-04T06:43:46.461Z,-6.6
2018-03-04T06:44:48.857Z,-6.5
2018-03-04T06:45:51.567Z,-6.5
2018-03-04T06:46:53.988Z,-6.5
2018-03-04T06:47:56.404Z,-6.4
2018-03-04T06:48:59.113Z,-6.5
2018-03-04T06:50:01.544Z,-6.5
2018-03-04T06:51:03.933Z,-6.5
2018-03-04T06:52:06.350Z,-6.4
2018-03-04T06:53:08.760Z,-6.4
2018-03-04T06:54:11.165Z,-6.4
2018-03-04T06:55:13.570Z,-6.4
2018-03-04T06:56:15.992Z,-6.4
2018-03-04T06:57:18.587Z,-6.3
2018-03-04T06:58:21.881Z,-6.3
2018-03-04T06:59:24.590Z,-6.3
2018-03-04T07:00:27.159Z,-6.3
2018-03-04T07:01:30.695Z,-6.3
2018-03-04T07:02:34.258Z,-6.4
2018-03-04T07:03:37.153Z,-6.3
2018-03-04T07:04:39.565Z,-6.3
2018-03-04T07:05:42.254Z,-6.3
2018-03-04T07:06:44.954Z,-6.3
2018-03-04T07:07:47.370Z,-6.3
2018-03-04T07:08:49.772Z,-6.3
2018-03-04T07:09:52.190Z,-6.2
2018-03-04T07:10:54.889Z,-6.3
2018-03-04T07:11:57.306Z,-6.3
2018-03-04T07:12:59.730Z,-6.2
2018-03-04T07:14:02.144Z,-6.2
2018-03-04T07:15:05.150Z,-6.2
2018-03-04T07:16:07.845Z,-6.2
2018-03-04T07:17:10.259Z,-6.1
2018-03-04T07:18:12.660Z,-6.1
2018-03-04T07:19:15.080Z,-6.1
2018-03-04T07:20:17.478Z,-6.1
2018-03-04T07:21:20.488Z,-6.1
2018-03-04T07:22:22.895Z,-6.1
2018-03-04T07:23:25.662Z,-6
2018-03-04T07:24:28.296Z,-6
2018-03-04T07:25:30.708Z,-6
2018-03-04T07:26:33.122Z,-6.1
2018-03-04T07:27:35.533Z,-6.1
2018-03-04T07:28:37.949Z,-6.1
2018-03-04T07:29:40.402Z,-6
2018-03-04T07:30:42.772Z,-6.1
2018-03-04T07:31:45.188Z,-6.1
2018-03-04T07:32:47.596Z,-6
2018-03-04T07:33:50.302Z,-6
2018-03-04T07:34:52.713Z,-6
2018-03-04T07:35:55.393Z,-6
2018-03-04T07:36:58.129Z,-6
2018-03-04T07:38:00.540Z,-5.9
2018-03-04T07:39:02.948Z,-6
2018-03-04T07:40:05.367Z,-6
2018-03-04T07:41:08.064Z,-5.9
2018-03-04T07:42:10.480Z,-5.9
2018-03-04T07:43:12.898Z,-5.9
2018-03-04T07:44:15.598Z,-5.9
2018-03-04T07:45:18.012Z,-5.9
2018-03-04T07:46:20.751Z,-5.8
2018-03-04T07:47:23.154Z,-5.8
2018-03-04T07:48:25.577Z,-5.8
2018-03-04T07:49:27.985Z,-5.8
2018-03-04T07:50:30.394Z,-5.8
2018-03-04T07:51:32.812Z,-5.8
2018-03-04T07:52:35.304Z,-5.8
2018-03-04T07:53:37.630Z,-5.8
2018-03-04T07:54:40.056Z,-5.8
2018-03-04T07:55:42.469Z,-5.9
2018-03-04T07:56:44.888Z,-5.8
2018-03-04T07:57:47.296Z,-5.8
2018-03-04T07:58:49.734Z,-5.8
2018-03-04T07:59:52.160Z,-5.7
2018-03-04T08:00:54.572Z,-5.7
2018-03-04T08:01:56.984Z,-5.7
2018-03-04T08:02:59.404Z,-5.7
2018-03-04T08:04:01.809Z,-5.6
2018-03-04T08:05:04.218Z,-5.6
2018-03-04T08:06:06.637Z,-5.6
2018-03-04T08:07:09.045Z,-5.7
2018-03-04T08:08:11.469Z,-5.6
2018-03-04T08:09:14.188Z,-5.5
2018-03-04T08:10:16.583Z,-5.5
2018-03-04T08:11:19.002Z,-5.5
2018-03-04T08:12:21.412Z,-5.4
2018-03-04T08:13:23.824Z,-5.4
2018-03-04T08:14:26.534Z,-5.4
2018-03-04T08:15:28.952Z,-5.5
2018-03-04T08:16:31.360Z,-5.4
2018-03-04T08:17:33.770Z,-5.3
2018-03-04T08:18:36.186Z,-5.3
2018-03-04T08:19:38.585Z,-5.4
2018-03-04T08:20:41.004Z,-5.3
2018-03-04T08:21:43.407Z,-5.3
2018-03-04T08:22:45.825Z,-5.3
2018-03-04T08:23:48.260Z,-5.3
2018-03-04T08:24:50.652Z,-5.3
2018-03-04T08:25:53.075Z,-5.2
2018-03-04T08:26:55.476Z,-5.1
2018-03-04T08:27:57.892Z,-5.2
2018-03-04T08:29:00.580Z,-5.2
2018-03-04T08:30:02.996Z,-5.2
2018-03-04T08:31:05.408Z,-5.2
2018-03-04T08:32:07.819Z,-5.2
2018-03-04T08:33:10.234Z,-5.2
2018-03-04T08:34:12.652Z,-5.1
2018-03-04T08:35:15.072Z,-5.1
2018-03-04T08:36:17.496Z,-5
2018-03-04T08:37:19.904Z,-5.1
2018-03-04T08:38:22.310Z,-5.1
2018-03-04T08:39:25.026Z,-5.1
2018-03-04T08:40:27.703Z,-5.1
2018-03-04T08:41:30.119Z,-5.1
2018-03-04T08:42:32.533Z,-5.1
2018-03-04T08:43:34.927Z,-5.1
2018-03-04T08:44:37.344Z,-5.1
2018-03-04T08:45:39.759Z,-5
2018-03-04T08:46:42.165Z,-4.9
2018-03-04T08:47:44.579Z,-4.9
2018-03-04T08:48:46.992Z,-4.9
2018-03-04T08:49:49.397Z,-4.9
2018-03-04T08:50:51.820Z,-4.9
2018-03-04T08:51:54.517Z,-4.9
2018-03-04T08:52:56.925Z,-5
2018-03-04T08:53:59.340Z,-4.9
2018-03-04T08:55:01.759Z,-4.9
2018-03-04T08:56:04.172Z,-4.8
2018-03-04T08:57:06.584Z,-4.8
2018-03-04T08:58:08.998Z,-4.7
2018-03-04T08:59:11.412Z,-4.7
2018-03-04T09:00:13.816Z,-4.7
2018-03-04T09:01:16.233Z,-4.7
2018-03-04T09:02:18.987Z,-4.6
2018-03-04T09:03:21.366Z,-4.6
2018-03-04T09:04:24.062Z,-4.7
2018-03-04T09:05:27.072Z,-4.7
2018-03-04T09:06:29.481Z,-4.6
2018-03-04T09:07:31.896Z,-4.6
2018-03-04T09:08:34.311Z,-4.5
2018-03-04T09:09:36.713Z,-4.6
2018-03-04T09:10:39.132Z,-4.6
2018-03-04T09:11:41.538Z,-4.6
2018-03-04T09:12:43.949Z,-4.6
2018-03-04T09:13:46.370Z,-4.6
2018-03-04T09:14:48.820Z,-4.5
2018-03-04T09:15:51.185Z,-4.5
2018-03-04T09:16:53.610Z,-4.5
2018-03-04T09:17:56.018Z,-4.4
2018-03-04T09:18:58.714Z,-4.3
2018-03-04T09:20:01.420Z,-4.2
2018-03-04T09:21:03.830Z,-4.2
2018-03-04T09:22:06.249Z,-4.2
2018-03-04T09:23:08.672Z,-4.1
2018-03-04T09:24:11.076Z,-4
2018-03-04T09:25:13.497Z,-3.9
2018-03-04T09:26:15.905Z,-3.7
2018-03-04T09:27:18.318Z,-3.4
2018-03-04T09:28:20.730Z,-3.4
2018-03-04T09:29:23.155Z,-3.4
2018-03-04T09:30:25.576Z,-3.3
2018-03-04T09:31:27.993Z,-3.3
2018-03-04T09:32:30.721Z,-3.3
2018-03-04T09:33:33.146Z,-3.2
2018-03-04T09:34:35.551Z,-3.1
2018-03-04T09:35:37.968Z,-3.1
2018-03-04T09:36:40.385Z,-3
2018-03-04T09:37:42.791Z,-2.5
2018-03-04T09:38:45.203Z,-2.3
2018-03-04T09:39:47.626Z,-2.1
2018-03-04T09:40:50.045Z,-2.1
2018-03-04T09:41:52.467Z,-1.7
2018-03-04T09:42:54.883Z,-1.6
2018-03-04T09:43:57.306Z,-1.6
2018-03-04T09:44:59.720Z,-1.7
2018-03-04T09:46:02.145Z,-1.9
2018-03-04T09:47:04.562Z,-1.5
2018-03-04T09:48:06.988Z,-1.5
2018-03-04T09:49:09.404Z,-1.5
2018-03-04T09:50:11.821Z,-1.6
2018-03-04T09:51:14.247Z,-1.4
2018-03-04T09:52:16.662Z,-1.3
2018-03-04T09:53:19.364Z,-1.5
2018-03-04T09:54:21.793Z,-1.3
2018-03-04T09:55:24.209Z,-1.1
2018-03-04T09:56:26.627Z,-1
2018-03-04T09:57:29.051Z,-1
2018-03-04T09:58:31.476Z,-0.8
2018-03-04T09:59:33.903Z,-1
2018-03-04T10:00:36.615Z,-1
2018-03-04T10:01:39.046Z,-0.8
2018-03-04T10:02:41.758Z,-0.7
2018-03-04T10:03:44.174Z,-0.5
2018-03-04T10:04:46.601Z,-0.5
2018-03-04T10:05:49.020Z,-0.8
2018-03-04T10:06:51.453Z,-0.9
2018-03-04T10:07:54.163Z,-0.9
2018-03-04T10:08:56.566Z,-0.7
2018-03-04T10:09:58.992Z,-0.4
2018-03-04T10:11:01.421Z,-0.2
2018-03-04T10:12:03.833Z,-0.3
2018-03-04T10:13:06.251Z,-0.2
2018-03-04T10:14:08.980Z,-0.4
2018-03-04T10:15:11.405Z,-0.6
2018-03-04T10:16:13.840Z,-0.3
2018-03-04T10:17:16.261Z,-0.2
2018-03-04T10:18:18.684Z,0
2018-03-04T10:19:21.112Z,0.2
2018-03-04T10:20:23.542Z,0.1
2018-03-04T10:21:25.962Z,0.1
2018-03-04T10:22:28.387Z,0.1
2018-03-04T10:23:30.802Z,0.1
2018-03-04T10:24:33.225Z,0.1
2018-03-04T10:25:35.660Z,0
2018-03-04T10:26:38.088Z,0.2
2018-03-04T10:27:40.522Z,0.3
2018-03-04T10:28:42.949Z,0.2
2018-03-04T10:29:45.365Z,0.4
2018-03-04T10:30:47.794Z,0.2
2018-03-04T10:31:50.500Z,0.3
2018-03-04T10:32:52.918Z,0.6
2018-03-04T10:33:55.350Z,0.7
2018-03-04T10:34:58.057Z,0.7
2018-03-04T10:36:00.484Z,0.5
2018-03-04T10:37:02.915Z,0.8
2018-03-04T10:38:05.345Z,0.8
2018-03-04T10:39:07.778Z,1
2018-03-04T10:40:10.208Z,1.1
2018-03-04T10:41:12.635Z,1.3
2018-03-04T10:42:15.065Z,1.3
2018-03-04T10:43:17.777Z,1.5
2018-03-04T10:44:20.200Z,1.5
2018-03-04T10:45:22.674Z,1.2
2018-03-04T10:46:25.060Z,1.1
2018-03-04T10:47:27.495Z,1.5
2018-03-04T10:48:29.919Z,1.2
2018-03-04T10:49:32.337Z,1.2
2018-03-04T10:50:34.760Z,0.9
2018-03-04T10:51:37.184Z,1.4
2018-03-04T10:52:39.615Z,1.2
2018-03-04T10:53:42.348Z,1.4
2018-03-04T10:54:44.774Z,1.6
2018-03-04T10:55:47.207Z,1.6
2018-03-04T10:56:49.922Z,1.9
2018-03-04T10:57:52.344Z,1.8
2018-03-04T10:58:54.785Z,1.6
2018-03-04T10:59:57.205Z,1.8
2018-03-04T11:00:59.631Z,1.9
2018-03-04T11:02:02.055Z,1.6
2018-03-04T11:03:04.489Z,1.8
2018-03-04T11:04:06.923Z,1.6
2018-03-04T11:05:09.648Z,1.5
2018-03-04T11:06:12.350Z,1.2
2018-03-04T11:07:15.069Z,1.3
2018-03-04T11:08:17.784Z,1.3
2018-03-04T11:09:20.204Z,1.5
2018-03-04T11:10:22.632Z,1.8
2018-03-04T11:11:25.054Z,1.4
2018-03-04T11:12:27.490Z,1.7
2018-03-04T11:13:29.929Z,1.4
2018-03-04T11:14:32.637Z,1.8
2018-03-04T11:15:35.355Z,1.8
2018-03-04T11:16:37.783Z,1.9
2018-03-04T11:17:40.217Z,2.1
2018-03-04T11:18:42.643Z,2.1
2018-03-04T11:19:45.073Z,1.9
2018-03-04T11:20:47.487Z,2
2018-03-04T11:21:49.929Z,1.5
2018-03-04T11:22:52.651Z,1.7
2018-03-04T11:23:55.357Z,1.9
2018-03-04T11:24:57.790Z,1.8
2018-03-04T11:26:00.499Z,1.8
2018-03-04T11:27:03.509Z,1.9
2018-03-04T11:28:06.237Z,2
2018-03-04T11:29:08.658Z,1.9
2018-03-04T11:30:11.092Z,1.9
2018-03-04T11:31:13.808Z,1.8
2018-03-04T11:32:16.220Z,1.8
2018-03-04T11:33:18.658Z,1.8
2018-03-04T11:34:21.093Z,1.8
2018-03-04T11:35:23.529Z,1.7
2018-03-04T11:36:25.954Z,2
2018-03-04T11:37:28.378Z,1.9
2018-03-04T11:38:31.102Z,2.1
2018-03-04T11:39:33.845Z,2.3
2018-03-04T11:40:36.268Z,2.5
2018-03-04T11:41:38.701Z,2.5
2018-03-04T11:42:41.405Z,2.6
2018-03-04T11:43:43.832Z,2.7
2018-03-04T11:44:46.268Z,2.9
2018-03-04T11:45:48.692Z,2.9
2018-03-04T11:46:51.107Z,2.6
2018-03-04T11:47:53.544Z,2.7
2018-03-04T11:48:55.972Z,2.4
2018-03-04T11:49:58.408Z,2.6
2018-03-04T11:51:00.837Z,2.5
2018-03-04T11:52:03.265Z,2.5
2018-03-04T11:53:05.690Z,2.6
2018-03-04T11:54:08.138Z,3
2018-03-04T11:55:10.558Z,3.4
2018-03-04T11:56:12.985Z,3.5
2018-03-04T11:57:15.412Z,3.3
2018-03-04T11:58:18.135Z,3
2018-03-04T11:59:20.564Z,2.6
2018-03-04T12:00:22.991Z,3.1
2018-03-04T12:01:25.413Z,3.2
2018-03-04T12:02:27.845Z,3.4
2018-03-04T12:03:30.273Z,3.5
2018-03-04T12:04:32.700Z,3.7
2018-03-04T12:05:35.120Z,3.3
2018-03-04T12:06:37.550Z,3.5
2018-03-04T12:07:39.979Z,3.7
2018-03-04T12:08:42.406Z,3.8
2018-03-04T12:09:44.852Z,3.4
2018-03-04T12:10:47.268Z,3.9
2018-03-04T12:11:49.697Z,3.8
2018-03-04T12:12:52.137Z,3.1
2018-03-04T12:13:54.564Z,3.8
2018-03-04T12:14:57.281Z,3.9
2018-03-04T12:15:59.711Z,3.7
2018-03-04T12:17:02.147Z,3.6
2018-03-04T12:18:05.914Z,3.5
2018-03-04T12:19:09.182Z,3.1
2018-03-04T12:20:12.829Z,3.1
2018-03-04T12:21:16.300Z,3.5
2018-03-04T12:22:19.798Z,3.6
2018-03-04T12:23:22.231Z,3.8
2018-03-04T12:24:24.663Z,3.8
2018-03-04T12:25:27.728Z,3.4
2018-03-04T12:26:30.441Z,3.1
2018-03-04T12:27:32.885Z,3.2
2018-03-04T12:28:35.325Z,3.3
2018-03-04T12:29:37.758Z,3.6
2018-03-04T12:30:40.195Z,3.2
2018-03-04T12:31:42.631Z,3.6
2018-03-04T12:32:45.057Z,3.5
2018-03-04T12:33:49.743Z,3.4
2018-03-04T12:34:53.401Z,2.9
2018-03-04T12:35:57.251Z,3
2018-03-04T12:37:00.987Z,3.2
2018-03-04T12:38:04.160Z,3.3
2018-03-04T12:39:07.653Z,3.4
2018-03-04T12:40:12.555Z,3.6
2018-03-04T12:41:17.592Z,3.7
2018-03-04T12:42:20.147Z,3.9
2018-03-04T12:43:22.738Z,3.6
2018-03-04T12:44:25.557Z,3.7
2018-03-04T12:45:27.998Z,3.7
2018-03-04T12:46:30.433Z,3.7
2018-03-04T12:47:32.927Z,3.6
2018-03-04T12:48:35.299Z,3.3
2018-03-04T12:49:38.319Z,3.8
2018-03-04T12:50:40.745Z,4
2018-03-04T12:51:43.476Z,3.8
2018-03-04T12:52:45.900Z,3.8
2018-03-04T12:53:48.339Z,4
2018-03-04T12:54:50.758Z,4
2018-03-04T12:55:53.196Z,4.1
2018-03-04T12:56:55.629Z,3.9
2018-03-04T12:57:58.052Z,4
2018-03-04T12:59:00.492Z,3.6
2018-03-04T13:00:02.931Z,3.6
2018-03-04T13:01:05.921Z,4
2018-03-04T13:02:08.362Z,3.8
2018-03-04T13:03:10.786Z,3.9
2018-03-04T13:04:13.216Z,4
2018-03-04T13:05:15.645Z,3.6
2018-03-04T13:06:18.084Z,3.7
2018-03-04T13:07:20.509Z,3.5
2018-03-04T13:08:22.945Z,3.8
2018-03-04T13:09:25.651Z,4
2018-03-04T13:10:28.087Z,4.5
2018-03-04T13:11:30.513Z,4.4
2018-03-04T13:12:32.926Z,4
2018-03-04T13:13:35.365Z,4.1
2018-03-04T13:14:37.791Z,4.3
2018-03-04T13:15:40.232Z,4.3
2018-03-04T13:16:42.650Z,4.1
2018-03-04T13:17:45.080Z,4.1
2018-03-04T13:18:47.500Z,4.2
2018-03-04T13:19:50.229Z,4.4
2018-03-04T13:20:52.653Z,4.7
2018-03-04T13:21:55.391Z,4.9
2018-03-04T13:22:57.829Z,4.9
2018-03-04T13:24:00.270Z,4.2
2018-03-04T13:25:02.697Z,4.2
2018-03-04T13:26:05.147Z,4.9
2018-03-04T13:27:07.572Z,4.7
2018-03-04T13:28:10.014Z,4.8
2018-03-04T13:29:12.438Z,5
2018-03-04T13:30:15.437Z,4.7
2018-03-04T13:31:18.160Z,4.5
2018-03-04T13:32:20.590Z,4.4
2018-03-04T13:33:23.020Z,4.2
2018-03-04T13:34:25.480Z,4.5
2018-03-04T13:35:28.180Z,4.4
2018-03-04T13:36:30.627Z,4.3
2018-03-04T13:37:33.368Z,4.4
2018-03-04T13:38:35.797Z,4.2
2018-03-04T13:39:38.522Z,4.1
2018-03-04T13:40:40.998Z,4.1
2018-03-04T13:41:43.383Z,4.4
2018-03-04T13:42:45.823Z,4.3
2018-03-04T13:43:48.530Z,4.3
2018-03-04T13:44:50.961Z,4.5
2018-03-04T13:45:53.408Z,4.3
2018-03-04T13:46:55.835Z,4.1
2018-03-04T13:47:58.263Z,4.4
2018-03-04T13:49:00.978Z,4.2
2018-03-04T13:50:03.411Z,4.4
2018-03-04T13:51:05.853Z,4.3
2018-03-04T13:52:08.285Z,4.4
2018-03-04T13:53:10.709Z,4.3
2018-03-04T13:54:13.142Z,4.4
2018-03-04T13:55:15.598Z,4.6
2018-03-04T13:56:18.010Z,4.5
2018-03-04T13:57:20.439Z,4.6
2018-03-04T13:58:22.877Z,4.3
2018-03-04T13:59:25.592Z,4.3
2018-03-04T14:00:28.010Z,4.8
2018-03-04T14:01:30.445Z,4.4
2018-03-04T14:02:32.879Z,4.5
2018-03-04T14:03:35.308Z,4.4
2018-03-04T14:04:37.735Z,4.1
2018-03-04T14:05:40.181Z,4.3
2018-03-04T14:06:42.613Z,3.9
2018-03-04T14:07:45.111Z,4.1